sensor_id;sensor_type;location;lat;lon;timestamp;P1;durP1;ratioP1;P2;durP2;ratioP2
2546;SDS011;1283;47.982;7.834;2024-01-30T00:00:01;4.82;;;2.38;;
2546;SDS011;1283;47.982;7.834;2024-01-30T00:02:28;4.03;;;1.75;;
2546;SDS011;1283;47.982;7.834;2024-01-30T00:04:54;4.88;;;2.00;;
2546;SDS011;1283;47.982;7.834;2024-01-30T00:07:22;4.40;;;2.33;;
2546;SDS011;1283;47.982;7.834;2024-01-30T00:09:49;4.95;;;2.03;;
2546;SDS011;1283;47.982;7.834;2024-01-30T00:12:15;8.35;;;2.00;;
2546;SDS011;1283;47.982;7.834;2024-01-30T00:14:42;4.40;;;2.13;;
2546;SDS011;1283;47.982;7.834;2024-01-30T00:17:08;4.72;;;1.98;;
2546;SDS011;1283;47.982;7.834;2024-01-30T00:19:35;3.08;;;1.80;;
2546;SDS011;1283;47.982;7.834;2024-01-30T00:22:01;4.53;;;1.60;;
2546;SDS011;1283;47.982;7.834;2024-01-30T00:24:29;3.58;;;1.95;;
2546;SDS011;1283;47.982;7.834;2024-01-30T00:26:56;3.17;;;1.90;;
2546;SDS011;1283;47.982;7.834;2024-01-30T00:29:22;3.08;;;1.70;;
2546;SDS011;1283;47.982;7.834;2024-01-30T00:31:50;4.60;;;1.80;;
2546;SDS011;1283;47.982;7.834;2024-01-30T00:34:17;2.92;;;1.70;;
2546;SDS011;1283;47.982;7.834;2024-01-30T00:36:44;4.32;;;1.90;;
2546;SDS011;1283;47.982;7.834;2024-01-30T00:39:10;3.28;;;2.00;;
2546;SDS011;1283;47.982;7.834;2024-01-30T00:41:38;4.45;;;1.70;;
2546;SDS011;1283;47.982;7.834;2024-01-30T00:44:04;2.75;;;1.60;;
2546;SDS011;1283;47.982;7.834;2024-01-30T00:46:31;3.13;;;1.80;;
2546;SDS011;1283;47.982;7.834;2024-01-30T00:48:57;3.55;;;1.90;;
2546;SDS011;1283;47.982;7.834;2024-01-30T00:51:24;7.18;;;1.70;;
2546;SDS011;1283;47.982;7.834;2024-01-30T00:53:50;8.52;;;1.80;;
2546;SDS011;1283;47.982;7.834;2024-01-30T00:56:17;2.85;;;1.60;;
2546;SDS011;1283;47.982;7.834;2024-01-30T00:58:45;3.65;;;1.90;;
2546;SDS011;1283;47.982;7.834;2024-01-30T01:01:11;4.57;;;1.42;;
2546;SDS011;1283;47.982;7.834;2024-01-30T01:03:38;3.75;;;2.00;;
2546;SDS011;1283;47.982;7.834;2024-01-30T01:06:05;3.78;;;2.00;;
2546;SDS011;1283;47.982;7.834;2024-01-30T01:08:32;3.28;;;1.50;;
2546;SDS011;1283;47.982;7.834;2024-01-30T01:10:58;4.68;;;1.75;;
2546;SDS011;1283;47.982;7.834;2024-01-30T01:13:25;5.75;;;1.90;;
2546;SDS011;1283;47.982;7.834;2024-01-30T01:15:53;2.95;;;1.52;;
2546;SDS011;1283;47.982;7.834;2024-01-30T01:18:19;4.97;;;1.77;;
2546;SDS011;1283;47.982;7.834;2024-01-30T01:20:46;2.50;;;1.58;;
2546;SDS011;1283;47.982;7.834;2024-01-30T01:23:13;3.60;;;2.20;;
2546;SDS011;1283;47.982;7.834;2024-01-30T01:25:39;4.68;;;1.80;;
2546;SDS011;1283;47.982;7.834;2024-01-30T01:28:05;4.25;;;1.45;;
2546;SDS011;1283;47.982;7.834;2024-01-30T01:30:32;3.92;;;1.70;;
2546;SDS011;1283;47.982;7.834;2024-01-30T01:33:00;3.38;;;1.67;;
2546;SDS011;1283;47.982;7.834;2024-01-30T01:35:27;3.25;;;1.83;;
2546;SDS011;1283;47.982;7.834;2024-01-30T01:37:54;5.50;;;1.95;;
2546;SDS011;1283;47.982;7.834;2024-01-30T01:40:21;2.75;;;1.77;;
2546;SDS011;1283;47.982;7.834;2024-01-30T01:42:49;6.78;;;1.60;;
2546;SDS011;1283;47.982;7.834;2024-01-30T01:45:15;2.95;;;1.80;;
2546;SDS011;1283;47.982;7.834;2024-01-30T01:47:42;8.80;;;1.98;;
2546;SDS011;1283;47.982;7.834;2024-01-30T01:50:12;5.03;;;1.90;;
2546;SDS011;1283;47.982;7.834;2024-01-30T01:52:38;2.85;;;1.58;;
2546;SDS011;1283;47.982;7.834;2024-01-30T01:55:06;4.63;;;2.08;;
2546;SDS011;1283;47.982;7.834;2024-01-30T01:57:33;6.65;;;1.50;;
2546;SDS011;1283;47.982;7.834;2024-01-30T02:00:00;1.90;;;1.50;;
2546;SDS011;1283;47.982;7.834;2024-01-30T02:02:26;3.80;;;1.90;;
2546;SDS011;1283;47.982;7.834;2024-01-30T02:04:56;2.85;;;1.70;;
2546;SDS011;1283;47.982;7.834;2024-01-30T02:07:24;2.88;;;1.70;;
2546;SDS011;1283;47.982;7.834;2024-01-30T02:09:51;4.38;;;2.08;;
2546;SDS011;1283;47.982;7.834;2024-01-30T02:12:17;2.83;;;1.80;;
2546;SDS011;1283;47.982;7.834;2024-01-30T02:14:44;3.75;;;1.75;;
2546;SDS011;1283;47.982;7.834;2024-01-30T02:17:11;3.60;;;1.60;;
2546;SDS011;1283;47.982;7.834;2024-01-30T02:19:37;2.35;;;1.55;;
2546;SDS011;1283;47.982;7.834;2024-01-30T02:22:05;2.50;;;1.50;;
2546;SDS011;1283;47.982;7.834;2024-01-30T02:24:31;2.83;;;1.70;;
2546;SDS011;1283;47.982;7.834;2024-01-30T02:26:58;3.83;;;2.03;;
2546;SDS011;1283;47.982;7.834;2024-01-30T02:29:24;4.07;;;2.00;;
2546;SDS011;1283;47.982;7.834;2024-01-30T02:31:50;2.28;;;1.52;;
2546;SDS011;1283;47.982;7.834;2024-01-30T02:34:17;3.67;;;1.80;;
2546;SDS011;1283;47.982;7.834;2024-01-30T02:36:44;8.63;;;2.35;;
2546;SDS011;1283;47.982;7.834;2024-01-30T02:39:12;4.03;;;1.50;;
2546;SDS011;1283;47.982;7.834;2024-01-30T02:41:38;2.70;;;1.88;;
2546;SDS011;1283;47.982;7.834;2024-01-30T02:44:05;3.85;;;2.00;;
2546;SDS011;1283;47.982;7.834;2024-01-30T02:46:31;2.97;;;1.70;;
2546;SDS011;1283;47.982;7.834;2024-01-30T02:48:57;3.78;;;2.00;;
2546;SDS011;1283;47.982;7.834;2024-01-30T02:51:24;2.92;;;1.90;;
2546;SDS011;1283;47.982;7.834;2024-01-30T02:53:50;2.40;;;1.48;;
2546;SDS011;1283;47.982;7.834;2024-01-30T02:56:18;4.32;;;2.10;;
2546;SDS011;1283;47.982;7.834;2024-01-30T02:58:44;2.90;;;1.77;;
2546;SDS011;1283;47.982;7.834;2024-01-30T03:01:11;3.15;;;1.77;;
2546;SDS011;1283;47.982;7.834;2024-01-30T03:03:37;4.68;;;1.80;;
2546;SDS011;1283;47.982;7.834;2024-01-30T03:06:05;6.97;;;1.60;;
2546;SDS011;1283;47.982;7.834;2024-01-30T03:08:32;5.45;;;1.70;;
2546;SDS011;1283;47.982;7.834;2024-01-30T03:10:59;4.85;;;1.92;;
2546;SDS011;1283;47.982;7.834;2024-01-30T03:13:27;4.57;;;1.67;;
2546;SDS011;1283;47.982;7.834;2024-01-30T03:15:54;3.78;;;1.98;;
2546;SDS011;1283;47.982;7.834;2024-01-30T03:18:20;4.20;;;1.60;;
2546;SDS011;1283;47.982;7.834;2024-01-30T03:20:47;5.85;;;1.92;;
2546;SDS011;1283;47.982;7.834;2024-01-30T03:23:13;5.40;;;1.95;;
2546;SDS011;1283;47.982;7.834;2024-01-30T03:25:39;6.43;;;1.70;;
2546;SDS011;1283;47.982;7.834;2024-01-30T03:28:06;3.00;;;1.83;;
2546;SDS011;1283;47.982;7.834;2024-01-30T03:30:34;3.08;;;1.77;;
2546;SDS011;1283;47.982;7.834;2024-01-30T03:33:00;4.40;;;2.25;;
2546;SDS011;1283;47.982;7.834;2024-01-30T03:35:27;3.45;;;1.88;;
2546;SDS011;1283;47.982;7.834;2024-01-30T03:37:53;3.15;;;1.63;;
2546;SDS011;1283;47.982;7.834;2024-01-30T03:40:20;5.20;;;1.80;;
2546;SDS011;1283;47.982;7.834;2024-01-30T03:42:46;4.53;;;2.00;;
2546;SDS011;1283;47.982;7.834;2024-01-30T03:45:12;4.75;;;1.90;;
2546;SDS011;1283;47.982;7.834;2024-01-30T03:47:40;3.08;;;1.88;;
2546;SDS011;1283;47.982;7.834;2024-01-30T03:50:09;2.50;;;1.70;;
2546;SDS011;1283;47.982;7.834;2024-01-30T03:52:36;2.65;;;1.88;;
2546;SDS011;1283;47.982;7.834;2024-01-30T03:55:02;5.07;;;2.10;;
2546;SDS011;1283;47.982;7.834;2024-01-30T03:57:30;3.70;;;2.00;;
2546;SDS011;1283;47.982;7.834;2024-01-30T03:59:56;3.63;;;1.95;;
2546;SDS011;1283;47.982;7.834;2024-01-30T04:02:22;2.20;;;1.40;;
2546;SDS011;1283;47.982;7.834;2024-01-30T04:04:51;4.38;;;1.70;;
2546;SDS011;1283;47.982;7.834;2024-01-30T04:07:17;7.35;;;2.20;;
2546;SDS011;1283;47.982;7.834;2024-01-30T04:09:43;4.07;;;2.13;;
2546;SDS011;1283;47.982;7.834;2024-01-30T04:12:10;3.15;;;1.85;;
2546;SDS011;1283;47.982;7.834;2024-01-30T04:14:37;5.07;;;1.95;;
2546;SDS011;1283;47.982;7.834;2024-01-30T04:17:04;4.00;;;2.00;;
2546;SDS011;1283;47.982;7.834;2024-01-30T04:19:30;3.53;;;2.00;;
2546;SDS011;1283;47.982;7.834;2024-01-30T04:21:58;3.65;;;2.00;;
2546;SDS011;1283;47.982;7.834;2024-01-30T04:24:24;4.63;;;2.22;;
2546;SDS011;1283;47.982;7.834;2024-01-30T04:26:51;4.32;;;1.70;;
2546;SDS011;1283;47.982;7.834;2024-01-30T04:29:17;6.03;;;2.17;;
2546;SDS011;1283;47.982;7.834;2024-01-30T04:31:44;5.43;;;2.22;;
2546;SDS011;1283;47.982;7.834;2024-01-30T04:34:10;7.25;;;2.42;;
2546;SDS011;1283;47.982;7.834;2024-01-30T04:36:37;5.82;;;2.40;;
2546;SDS011;1283;47.982;7.834;2024-01-30T04:39:05;4.05;;;2.20;;
2546;SDS011;1283;47.982;7.834;2024-01-30T04:41:31;2.85;;;1.65;;
2546;SDS011;1283;47.982;7.834;2024-01-30T04:43:57;8.55;;;2.30;;
2546;SDS011;1283;47.982;7.834;2024-01-30T04:46:24;7.43;;;2.40;;
2546;SDS011;1283;47.982;7.834;2024-01-30T04:48:50;4.82;;;2.67;;
2546;SDS011;1283;47.982;7.834;2024-01-30T04:51:17;6.15;;;2.30;;
2546;SDS011;1283;47.982;7.834;2024-01-30T04:53:43;4.72;;;2.13;;
2546;SDS011;1283;47.982;7.834;2024-01-30T04:56:11;4.60;;;2.13;;
2546;SDS011;1283;47.982;7.834;2024-01-30T04:58:37;3.55;;;2.08;;
2546;SDS011;1283;47.982;7.834;2024-01-30T05:01:04;3.85;;;2.30;;
2546;SDS011;1283;47.982;7.834;2024-01-30T05:03:32;3.40;;;2.05;;
2546;SDS011;1283;47.982;7.834;2024-01-30T05:05:59;3.67;;;1.73;;
2546;SDS011;1283;47.982;7.834;2024-01-30T05:08:25;8.38;;;2.35;;
2546;SDS011;1283;47.982;7.834;2024-01-30T05:10:52;4.03;;;2.30;;
2546;SDS011;1283;47.982;7.834;2024-01-30T05:13:19;12.75;;;2.25;;
2546;SDS011;1283;47.982;7.834;2024-01-30T05:15:46;3.88;;;2.08;;
2546;SDS011;1283;47.982;7.834;2024-01-30T05:18:12;5.30;;;1.88;;
2546;SDS011;1283;47.982;7.834;2024-01-30T05:20:39;3.13;;;1.98;;
2546;SDS011;1283;47.982;7.834;2024-01-30T05:23:05;3.70;;;1.92;;
2546;SDS011;1283;47.982;7.834;2024-01-30T05:25:31;4.03;;;2.33;;
2546;SDS011;1283;47.982;7.834;2024-01-30T05:27:58;3.35;;;1.92;;
2546;SDS011;1283;47.982;7.834;2024-01-30T05:30:26;4.82;;;1.92;;
2546;SDS011;1283;47.982;7.834;2024-01-30T05:32:52;3.60;;;1.70;;
2546;SDS011;1283;47.982;7.834;2024-01-30T05:35:19;4.50;;;2.17;;
2546;SDS011;1283;47.982;7.834;2024-01-30T05:37:46;5.30;;;3.10;;
2546;SDS011;1283;47.982;7.834;2024-01-30T05:40:13;4.00;;;2.25;;
2546;SDS011;1283;47.982;7.834;2024-01-30T05:42:40;4.63;;;1.83;;
2546;SDS011;1283;47.982;7.834;2024-01-30T05:45:06;2.95;;;2.00;;
2546;SDS011;1283;47.982;7.834;2024-01-30T05:47:35;5.20;;;2.28;;
2546;SDS011;1283;47.982;7.834;2024-01-30T05:50:01;5.55;;;1.90;;
2546;SDS011;1283;47.982;7.834;2024-01-30T05:52:28;2.33;;;1.73;;
2546;SDS011;1283;47.982;7.834;2024-01-30T05:54:54;7.05;;;2.33;;
2546;SDS011;1283;47.982;7.834;2024-01-30T05:57:21;5.18;;;2.13;;
2546;SDS011;1283;47.982;7.834;2024-01-30T05:59:47;5.25;;;1.80;;
2546;SDS011;1283;47.982;7.834;2024-01-30T06:02:13;4.90;;;2.55;;
2546;SDS011;1283;47.982;7.834;2024-01-30T06:04:41;3.75;;;2.08;;
2546;SDS011;1283;47.982;7.834;2024-01-30T06:07:09;4.82;;;2.20;;
2546;SDS011;1283;47.982;7.834;2024-01-30T06:09:35;6.40;;;2.22;;
2546;SDS011;1283;47.982;7.834;2024-01-30T06:12:03;3.13;;;1.95;;
2546;SDS011;1283;47.982;7.834;2024-01-30T06:14:31;4.38;;;2.45;;
2546;SDS011;1283;47.982;7.834;2024-01-30T06:16:57;7.40;;;2.33;;
2546;SDS011;1283;47.982;7.834;2024-01-30T06:19:24;7.03;;;2.58;;
2546;SDS011;1283;47.982;7.834;2024-01-30T06:21:52;8.60;;;3.20;;
2546;SDS011;1283;47.982;7.834;2024-01-30T06:24:18;10.43;;;2.72;;
2546;SDS011;1283;47.982;7.834;2024-01-30T06:26:45;5.30;;;2.42;;
2546;SDS011;1283;47.982;7.834;2024-01-30T06:29:11;6.82;;;2.70;;
2546;SDS011;1283;47.982;7.834;2024-01-30T06:31:40;5.75;;;2.83;;
2546;SDS011;1283;47.982;7.834;2024-01-30T06:34:07;7.55;;;2.40;;
2546;SDS011;1283;47.982;7.834;2024-01-30T06:36:33;7.55;;;3.10;;
2546;SDS011;1283;47.982;7.834;2024-01-30T06:39:01;9.48;;;3.08;;
2546;SDS011;1283;47.982;7.834;2024-01-30T06:41:28;5.60;;;2.70;;
2546;SDS011;1283;47.982;7.834;2024-01-30T06:43:54;7.40;;;2.75;;
2546;SDS011;1283;47.982;7.834;2024-01-30T06:46:21;6.97;;;2.58;;
2546;SDS011;1283;47.982;7.834;2024-01-30T06:48:47;7.40;;;2.72;;
2546;SDS011;1283;47.982;7.834;2024-01-30T06:51:14;5.60;;;3.10;;
2546;SDS011;1283;47.982;7.834;2024-01-30T06:53:40;8.20;;;3.38;;
2546;SDS011;1283;47.982;7.834;2024-01-30T06:56:08;12.30;;;3.28;;
2546;SDS011;1283;47.982;7.834;2024-01-30T06:58:34;9.57;;;3.10;;
2546;SDS011;1283;47.982;7.834;2024-01-30T07:01:01;8.80;;;3.15;;
2546;SDS011;1283;47.982;7.834;2024-01-30T07:03:27;7.15;;;3.33;;
2546;SDS011;1283;47.982;7.834;2024-01-30T07:05:54;10.60;;;3.40;;
2546;SDS011;1283;47.982;7.834;2024-01-30T07:08:20;12.90;;;3.20;;
2546;SDS011;1283;47.982;7.834;2024-01-30T07:10:48;11.98;;;3.05;;
2546;SDS011;1283;47.982;7.834;2024-01-30T07:13:16;4.95;;;2.95;;
2546;SDS011;1283;47.982;7.834;2024-01-30T07:15:42;7.20;;;3.17;;
2546;SDS011;1283;47.982;7.834;2024-01-30T07:18:09;12.10;;;3.42;;
2546;SDS011;1283;47.982;7.834;2024-01-30T07:20:35;8.02;;;3.05;;
2546;SDS011;1283;47.982;7.834;2024-01-30T07:23:02;5.85;;;2.90;;
2546;SDS011;1283;47.982;7.834;2024-01-30T07:25:29;7.90;;;3.00;;
2546;SDS011;1283;47.982;7.834;2024-01-30T07:27:55;7.70;;;2.97;;
2546;SDS011;1283;47.982;7.834;2024-01-30T07:30:23;5.78;;;2.85;;
2546;SDS011;1283;47.982;7.834;2024-01-30T07:32:50;5.55;;;2.90;;
2546;SDS011;1283;47.982;7.834;2024-01-30T07:35:16;17.88;;;3.00;;
2546;SDS011;1283;47.982;7.834;2024-01-30T07:37:43;6.45;;;2.85;;
2546;SDS011;1283;47.982;7.834;2024-01-30T07:40:09;6.75;;;2.80;;
2546;SDS011;1283;47.982;7.834;2024-01-30T07:42:36;9.88;;;3.10;;
2546;SDS011;1283;47.982;7.834;2024-01-30T07:45:02;14.23;;;3.33;;
2546;SDS011;1283;47.982;7.834;2024-01-30T07:47:30;15.43;;;2.90;;
2546;SDS011;1283;47.982;7.834;2024-01-30T07:49:57;6.38;;;3.83;;
2546;SDS011;1283;47.982;7.834;2024-01-30T07:52:24;10.45;;;3.00;;
2546;SDS011;1283;47.982;7.834;2024-01-30T07:54:50;10.90;;;3.58;;
2546;SDS011;1283;47.982;7.834;2024-01-30T07:57:17;14.52;;;3.33;;
2546;SDS011;1283;47.982;7.834;2024-01-30T07:59:44;6.97;;;3.00;;
2546;SDS011;1283;47.982;7.834;2024-01-30T08:02:11;5.68;;;2.50;;
2546;SDS011;1283;47.982;7.834;2024-01-30T08:04:39;7.32;;;3.25;;
2546;SDS011;1283;47.982;7.834;2024-01-30T08:07:05;8.77;;;2.80;;
2546;SDS011;1283;47.982;7.834;2024-01-30T08:09:32;7.60;;;2.88;;
2546;SDS011;1283;47.982;7.834;2024-01-30T08:11:58;9.80;;;2.90;;
2546;SDS011;1283;47.982;7.834;2024-01-30T08:14:24;12.13;;;3.22;;
2546;SDS011;1283;47.982;7.834;2024-01-30T08:16:51;13.98;;;3.25;;
2546;SDS011;1283;47.982;7.834;2024-01-30T08:19:18;6.03;;;2.80;;
2546;SDS011;1283;47.982;7.834;2024-01-30T08:21:46;9.02;;;2.70;;
2546;SDS011;1283;47.982;7.834;2024-01-30T08:24:12;6.65;;;2.80;;
2546;SDS011;1283;47.982;7.834;2024-01-30T08:26:39;5.97;;;2.75;;
2546;SDS011;1283;47.982;7.834;2024-01-30T08:29:05;14.82;;;3.22;;
2546;SDS011;1283;47.982;7.834;2024-01-30T08:31:32;12.48;;;4.20;;
2546;SDS011;1283;47.982;7.834;2024-01-30T08:33:58;8.90;;;3.20;;
2546;SDS011;1283;47.982;7.834;2024-01-30T08:36:24;7.00;;;3.03;;
2546;SDS011;1283;47.982;7.834;2024-01-30T08:38:52;9.30;;;3.10;;
2546;SDS011;1283;47.982;7.834;2024-01-30T08:41:19;4.65;;;2.70;;
2546;SDS011;1283;47.982;7.834;2024-01-30T08:43:45;7.50;;;3.03;;
2546;SDS011;1283;47.982;7.834;2024-01-30T08:46:11;12.32;;;3.15;;
2546;SDS011;1283;47.982;7.834;2024-01-30T08:48:38;8.85;;;3.13;;
2546;SDS011;1283;47.982;7.834;2024-01-30T08:51:04;9.20;;;2.88;;
2546;SDS011;1283;47.982;7.834;2024-01-30T08:53:33;10.82;;;2.63;;
2546;SDS011;1283;47.982;7.834;2024-01-30T08:56:01;13.02;;;3.80;;
2546;SDS011;1283;47.982;7.834;2024-01-30T08:58:28;7.00;;;3.03;;
2546;SDS011;1283;47.982;7.834;2024-01-30T09:00:54;14.55;;;2.83;;
2546;SDS011;1283;47.982;7.834;2024-01-30T09:03:21;6.30;;;2.65;;
2546;SDS011;1283;47.982;7.834;2024-01-30T09:05:47;7.15;;;2.53;;
2546;SDS011;1283;47.982;7.834;2024-01-30T09:08:13;6.60;;;2.63;;
2546;SDS011;1283;47.982;7.834;2024-01-30T09:10:40;5.38;;;3.00;;
2546;SDS011;1283;47.982;7.834;2024-01-30T09:13:08;4.22;;;2.47;;
2546;SDS011;1283;47.982;7.834;2024-01-30T09:15:34;7.22;;;2.92;;
2546;SDS011;1283;47.982;7.834;2024-01-30T09:18:00;6.20;;;3.42;;
2546;SDS011;1283;47.982;7.834;2024-01-30T09:20:27;4.80;;;2.70;;
2546;SDS011;1283;47.982;7.834;2024-01-30T09:22:53;5.57;;;2.60;;
2546;SDS011;1283;47.982;7.834;2024-01-30T09:25:20;8.63;;;2.92;;
2546;SDS011;1283;47.982;7.834;2024-01-30T09:27:46;7.55;;;2.60;;
2546;SDS011;1283;47.982;7.834;2024-01-30T09:30:14;10.32;;;3.10;;
2546;SDS011;1283;47.982;7.834;2024-01-30T09:32:41;4.22;;;2.67;;
2546;SDS011;1283;47.982;7.834;2024-01-30T09:35:08;9.38;;;3.13;;
2546;SDS011;1283;47.982;7.834;2024-01-30T09:37:35;8.38;;;2.85;;
2546;SDS011;1283;47.982;7.834;2024-01-30T09:40:01;5.35;;;2.92;;
2546;SDS011;1283;47.982;7.834;2024-01-30T09:42:31;6.05;;;2.22;;
2546;SDS011;1283;47.982;7.834;2024-01-30T09:45:00;7.65;;;2.75;;
2546;SDS011;1283;47.982;7.834;2024-01-30T09:47:29;4.32;;;2.20;;
2546;SDS011;1283;47.982;7.834;2024-01-30T09:49:57;8.15;;;2.90;;
2546;SDS011;1283;47.982;7.834;2024-01-30T09:52:24;5.18;;;2.63;;
2546;SDS011;1283;47.982;7.834;2024-01-30T09:54:51;7.03;;;2.95;;
2546;SDS011;1283;47.982;7.834;2024-01-30T09:57:18;6.45;;;2.38;;
2546;SDS011;1283;47.982;7.834;2024-01-30T09:59:44;7.40;;;2.88;;
2546;SDS011;1283;47.982;7.834;2024-01-30T10:02:10;3.70;;;2.47;;
2546;SDS011;1283;47.982;7.834;2024-01-30T10:04:38;6.88;;;3.40;;
2546;SDS011;1283;47.982;7.834;2024-01-30T10:07:05;5.72;;;3.05;;
2546;SDS011;1283;47.982;7.834;2024-01-30T10:09:32;8.18;;;2.90;;
2546;SDS011;1283;47.982;7.834;2024-01-30T10:11:59;4.90;;;2.63;;
2546;SDS011;1283;47.982;7.834;2024-01-30T10:14:25;4.30;;;2.40;;
2546;SDS011;1283;47.982;7.834;2024-01-30T10:16:52;7.95;;;2.53;;
2546;SDS011;1283;47.982;7.834;2024-01-30T10:19:18;4.72;;;2.53;;
2546;SDS011;1283;47.982;7.834;2024-01-30T10:21:47;7.22;;;3.10;;
2546;SDS011;1283;47.982;7.834;2024-01-30T10:24:13;5.95;;;2.70;;
2546;SDS011;1283;47.982;7.834;2024-01-30T10:26:40;4.60;;;2.55;;
2546;SDS011;1283;47.982;7.834;2024-01-30T10:29:06;9.80;;;2.80;;
2546;SDS011;1283;47.982;7.834;2024-01-30T10:31:33;7.03;;;2.75;;
2546;SDS011;1283;47.982;7.834;2024-01-30T10:34:00;6.68;;;3.50;;
2546;SDS011;1283;47.982;7.834;2024-01-30T10:36:28;7.72;;;3.58;;
2546;SDS011;1283;47.982;7.834;2024-01-30T10:38:57;5.45;;;2.80;;
2546;SDS011;1283;47.982;7.834;2024-01-30T10:41:26;4.35;;;2.88;;
2546;SDS011;1283;47.982;7.834;2024-01-30T10:43:55;5.63;;;2.88;;
2546;SDS011;1283;47.982;7.834;2024-01-30T10:46:25;5.43;;;2.33;;
2546;SDS011;1283;47.982;7.834;2024-01-30T10:48:56;3.70;;;2.00;;
2546;SDS011;1283;47.982;7.834;2024-01-30T10:51:23;4.20;;;2.47;;
2546;SDS011;1283;47.982;7.834;2024-01-30T10:53:50;3.90;;;2.38;;
2546;SDS011;1283;47.982;7.834;2024-01-30T10:56:18;2.58;;;2.00;;
2546;SDS011;1283;47.982;7.834;2024-01-30T10:58:47;4.13;;;2.10;;
2546;SDS011;1283;47.982;7.834;2024-01-30T11:01:13;3.10;;;2.03;;
2546;SDS011;1283;47.982;7.834;2024-01-30T11:03:40;4.15;;;2.20;;
2546;SDS011;1283;47.982;7.834;2024-01-30T11:06:10;3.42;;;1.98;;
2546;SDS011;1283;47.982;7.834;2024-01-30T11:08:36;3.97;;;2.00;;
2546;SDS011;1283;47.982;7.834;2024-01-30T11:11:03;7.35;;;2.72;;
2546;SDS011;1283;47.982;7.834;2024-01-30T11:13:36;3.50;;;2.00;;
2546;SDS011;1283;47.982;7.834;2024-01-30T11:16:03;6.18;;;2.40;;
2546;SDS011;1283;47.982;7.834;2024-01-30T11:18:30;3.25;;;2.10;;
2546;SDS011;1283;47.982;7.834;2024-01-30T11:20:57;3.35;;;2.13;;
2546;SDS011;1283;47.982;7.834;2024-01-30T11:23:25;5.80;;;2.00;;
2546;SDS011;1283;47.982;7.834;2024-01-30T11:25:52;4.35;;;2.10;;
2546;SDS011;1283;47.982;7.834;2024-01-30T11:28:18;5.20;;;2.08;;
2546;SDS011;1283;47.982;7.834;2024-01-30T11:30:48;3.85;;;2.13;;
2546;SDS011;1283;47.982;7.834;2024-01-30T11:33:16;5.78;;;2.28;;
2546;SDS011;1283;47.982;7.834;2024-01-30T11:35:55;4.18;;;2.00;;
2546;SDS011;1283;47.982;7.834;2024-01-30T11:38:23;4.63;;;2.08;;
2546;SDS011;1283;47.982;7.834;2024-01-30T11:40:51;3.67;;;2.10;;
2546;SDS011;1283;47.982;7.834;2024-01-30T11:43:19;2.90;;;2.13;;
2546;SDS011;1283;47.982;7.834;2024-01-30T11:45:45;5.55;;;1.95;;
2546;SDS011;1283;47.982;7.834;2024-01-30T11:48:13;3.90;;;2.00;;
2546;SDS011;1283;47.982;7.834;2024-01-30T11:50:39;7.68;;;2.00;;
2546;SDS011;1283;47.982;7.834;2024-01-30T11:53:06;6.10;;;2.40;;
2546;SDS011;1283;47.982;7.834;2024-01-30T11:55:33;6.38;;;2.30;;
2546;SDS011;1283;47.982;7.834;2024-01-30T11:58:01;3.92;;;1.83;;
2546;SDS011;1283;47.982;7.834;2024-01-30T12:00:29;3.55;;;2.05;;
2546;SDS011;1283;47.982;7.834;2024-01-30T12:02:56;5.55;;;2.42;;
2546;SDS011;1283;47.982;7.834;2024-01-30T12:05:24;6.65;;;2.40;;
2546;SDS011;1283;47.982;7.834;2024-01-30T12:07:51;7.80;;;2.20;;
2546;SDS011;1283;47.982;7.834;2024-01-30T12:10:17;4.72;;;2.47;;
2546;SDS011;1283;47.982;7.834;2024-01-30T12:12:44;4.90;;;2.40;;
2546;SDS011;1283;47.982;7.834;2024-01-30T12:15:12;6.75;;;2.08;;
2546;SDS011;1283;47.982;7.834;2024-01-30T12:17:39;3.63;;;2.13;;
2546;SDS011;1283;47.982;7.834;2024-01-30T12:20:05;4.03;;;2.58;;
2546;SDS011;1283;47.982;7.834;2024-01-30T12:22:35;5.35;;;2.42;;
2546;SDS011;1283;47.982;7.834;2024-01-30T12:25:02;4.00;;;2.55;;
2546;SDS011;1283;47.982;7.834;2024-01-30T12:27:29;3.63;;;2.50;;
2546;SDS011;1283;47.982;7.834;2024-01-30T12:29:55;6.32;;;2.50;;
2546;SDS011;1283;47.982;7.834;2024-01-30T12:32:22;7.03;;;2.65;;
2546;SDS011;1283;47.982;7.834;2024-01-30T12:34:49;6.95;;;2.67;;
2546;SDS011;1283;47.982;7.834;2024-01-30T12:37:15;6.88;;;2.75;;
2546;SDS011;1283;47.982;7.834;2024-01-30T12:39:48;6.15;;;2.45;;
2546;SDS011;1283;47.982;7.834;2024-01-30T12:42:15;5.10;;;2.45;;
2546;SDS011;1283;47.982;7.834;2024-01-30T12:44:41;7.43;;;2.80;;
2546;SDS011;1283;47.982;7.834;2024-01-30T12:47:08;4.53;;;2.40;;
2546;SDS011;1283;47.982;7.834;2024-01-30T12:49:35;4.55;;;2.10;;
2546;SDS011;1283;47.982;7.834;2024-01-30T12:52:01;4.40;;;2.47;;
2546;SDS011;1283;47.982;7.834;2024-01-30T12:54:28;5.82;;;2.70;;
2546;SDS011;1283;47.982;7.834;2024-01-30T12:56:56;4.68;;;2.75;;
2546;SDS011;1283;47.982;7.834;2024-01-30T12:59:22;5.47;;;2.67;;
2546;SDS011;1283;47.982;7.834;2024-01-30T13:01:49;4.93;;;2.63;;
2546;SDS011;1283;47.982;7.834;2024-01-30T13:04:15;7.18;;;2.63;;
2546;SDS011;1283;47.982;7.834;2024-01-30T13:06:42;6.60;;;2.17;;
2546;SDS011;1283;47.982;7.834;2024-01-30T13:09:08;5.13;;;2.00;;
2546;SDS011;1283;47.982;7.834;2024-01-30T13:11:35;5.05;;;2.70;;
2546;SDS011;1283;47.982;7.834;2024-01-30T13:14:02;3.60;;;1.92;;
2546;SDS011;1283;47.982;7.834;2024-01-30T13:16:29;6.03;;;2.25;;
2546;SDS011;1283;47.982;7.834;2024-01-30T13:18:55;4.00;;;2.30;;
2546;SDS011;1283;47.982;7.834;2024-01-30T13:21:22;4.22;;;2.22;;
2546;SDS011;1283;47.982;7.834;2024-01-30T13:23:48;7.63;;;2.13;;
2546;SDS011;1283;47.982;7.834;2024-01-30T13:26:18;4.43;;;2.20;;
2546;SDS011;1283;47.982;7.834;2024-01-30T13:28:44;4.53;;;2.40;;
2546;SDS011;1283;47.982;7.834;2024-01-30T13:31:12;5.32;;;2.72;;
2546;SDS011;1283;47.982;7.834;2024-01-30T13:33:38;4.22;;;2.50;;
2546;SDS011;1283;47.982;7.834;2024-01-30T13:36:05;6.63;;;2.60;;
2546;SDS011;1283;47.982;7.834;2024-01-30T13:38:32;3.08;;;2.15;;
2546;SDS011;1283;47.982;7.834;2024-01-30T13:40:59;5.35;;;2.58;;
2546;SDS011;1283;47.982;7.834;2024-01-30T13:43:25;4.53;;;2.50;;
2546;SDS011;1283;47.982;7.834;2024-01-30T13:45:52;9.63;;;3.22;;
2546;SDS011;1283;47.982;7.834;2024-01-30T13:48:20;4.07;;;2.50;;
2546;SDS011;1283;47.982;7.834;2024-01-30T13:50:46;8.10;;;2.50;;
2546;SDS011;1283;47.982;7.834;2024-01-30T13:53:13;3.63;;;2.35;;
2546;SDS011;1283;47.982;7.834;2024-01-30T13:55:39;7.95;;;3.10;;
2546;SDS011;1283;47.982;7.834;2024-01-30T13:58:06;6.90;;;2.50;;
2546;SDS011;1283;47.982;7.834;2024-01-30T14:00:32;5.57;;;3.15;;
2546;SDS011;1283;47.982;7.834;2024-01-30T14:02:59;6.30;;;2.85;;
2546;SDS011;1283;47.982;7.834;2024-01-30T14:05:28;6.20;;;3.15;;
2546;SDS011;1283;47.982;7.834;2024-01-30T14:07:54;4.30;;;2.67;;
2546;SDS011;1283;47.982;7.834;2024-01-30T14:10:21;5.78;;;3.00;;
2546;SDS011;1283;47.982;7.834;2024-01-30T14:12:47;5.35;;;3.08;;
2546;SDS011;1283;47.982;7.834;2024-01-30T14:15:14;4.05;;;2.72;;
2546;SDS011;1283;47.982;7.834;2024-01-30T14:17:42;10.63;;;3.80;;
2546;SDS011;1283;47.982;7.834;2024-01-30T14:20:10;6.38;;;3.30;;
2546;SDS011;1283;47.982;7.834;2024-01-30T14:22:38;7.70;;;2.67;;
2546;SDS011;1283;47.982;7.834;2024-01-30T14:25:05;5.25;;;3.00;;
2546;SDS011;1283;47.982;7.834;2024-01-30T14:27:32;6.50;;;3.03;;
2546;SDS011;1283;47.982;7.834;2024-01-30T14:29:58;6.68;;;3.20;;
2546;SDS011;1283;47.982;7.834;2024-01-30T14:32:25;8.75;;;3.35;;
2546;SDS011;1283;47.982;7.834;2024-01-30T14:34:51;6.38;;;3.22;;
2546;SDS011;1283;47.982;7.834;2024-01-30T14:37:18;7.60;;;2.83;;
2546;SDS011;1283;47.982;7.834;2024-01-30T14:39:46;14.10;;;3.55;;
2546;SDS011;1283;47.982;7.834;2024-01-30T14:42:12;7.95;;;3.35;;
2546;SDS011;1283;47.982;7.834;2024-01-30T14:44:39;6.47;;;3.22;;
2546;SDS011;1283;47.982;7.834;2024-01-30T14:47:06;7.20;;;3.40;;
2546;SDS011;1283;47.982;7.834;2024-01-30T14:49:32;8.00;;;3.03;;
2546;SDS011;1283;47.982;7.834;2024-01-30T14:51:59;4.03;;;2.75;;
2546;SDS011;1283;47.982;7.834;2024-01-30T14:54:25;11.25;;;3.65;;
2546;SDS011;1283;47.982;7.834;2024-01-30T14:56:53;6.63;;;3.30;;
2546;SDS011;1283;47.982;7.834;2024-01-30T14:59:20;4.43;;;2.63;;
2546;SDS011;1283;47.982;7.834;2024-01-30T15:01:46;10.75;;;3.40;;
2546;SDS011;1283;47.982;7.834;2024-01-30T15:04:13;6.38;;;3.17;;
2546;SDS011;1283;47.982;7.834;2024-01-30T15:06:39;7.22;;;3.85;;
2546;SDS011;1283;47.982;7.834;2024-01-30T15:09:10;7.28;;;2.85;;
2546;SDS011;1283;47.982;7.834;2024-01-30T15:11:39;8.77;;;4.18;;